Brothers, Oregon
Current Conditions -  °F | °C
As of 5:35 PM on Sunday 23 Nov 2014 (Local Time) from KBDN Reporting Station
Few Clouds Few Clouds  
Wind Chill: 34°   Ceiling: Unl
Heat Index: 39°   Visibility: 10mi
Dew Point: 28°   Wind: 8mph
Humidity: 65%   Direction: 220°SW
Pressure: 30.26"   Gusts: NA
Location:  43.81°N, 120.61°W
Report Text: KBDN 240135Z AUTO 22007KT 10SM FEW120 04/M02 A3026 RMK AO2
Loading
Personal Weather Stations






























Interactive Weather Map New forecast layout! Learn more

10-Day Weather Forecast

Advertisements
Track Severe Weather on mobile